sensor_id;sensor_type;location;lat;lon;timestamp;pressure;altitude;pressure_sealevel;temperature;humidity
18918;BME280;9591;52.742;13.650;2022-12-29T00:00:11;100182.00;;;7.09;100.00
18918;BME280;9591;52.742;13.650;2022-12-29T00:02:59;100177.59;;;7.10;100.00
18918;BME280;9591;52.742;13.650;2022-12-29T00:05:54;100184.34;;;7.20;100.00
18918;BME280;9591;52.742;13.650;2022-12-29T00:08:40;100186.06;;;7.22;100.00
18918;BME280;9591;52.742;13.650;2022-12-29T00:11:27;100178.16;;;7.22;100.00
18918;BME280;9591;52.742;13.650;2022-12-29T00:14:14;100168.63;;;7.17;100.00
18918;BME280;9591;52.742;13.650;2022-12-29T00:17:19;100179.19;;;7.17;100.00
18918;BME280;9591;52.742;13.650;2022-12-29T00:20:08;100176.38;;;7.23;100.00
18918;BME280;9591;52.742;13.650;2022-12-29T00:23:12;100180.53;;;7.32;100.00
18918;BME280;9591;52.742;13.650;2022-12-29T00:26:17;100184.03;;;7.32;100.00
18918;BME280;9591;52.742;13.650;2022-12-29T00:29:21;100171.06;;;7.24;100.00
18918;BME280;9591;52.742;13.650;2022-12-29T00:32:26;100180.19;;;7.44;100.00
18918;BME280;9591;52.742;13.650;2022-12-29T00:35:35;100174.78;;;7.48;100.00
18918;BME280;9591;52.742;13.650;2022-12-29T00:38:26;100165.28;;;7.43;100.00
18918;BME280;9591;52.742;13.650;2022-12-29T00:41:31;100169.66;;;7.44;100.00
18918;BME280;9591;52.742;13.650;2022-12-29T00:44:35;100173.31;;;7.38;100.00
18918;BME280;9591;52.742;13.650;2022-12-29T00:47:22;100169.53;;;7.48;100.00
18918;BME280;9591;52.742;13.650;2022-12-29T00:50:09;100174.66;;;7.53;100.00
18918;BME280;9591;52.742;13.650;2022-12-29T00:52:56;100150.91;;;7.54;100.00
18918;BME280;9591;52.742;13.650;2022-12-29T00:55:44;100139.91;;;7.40;100.00
18918;BME280;9591;52.742;13.650;2022-12-29T00:58:30;100141.56;;;7.43;100.00
18918;BME280;9591;52.742;13.650;2022-12-29T01:01:17;100144.22;;;7.43;100.00
18918;BME280;9591;52.742;13.650;2022-12-29T01:04:05;100138.13;;;7.41;100.00
18918;BME280;9591;52.742;13.650;2022-12-29T01:06:52;100137.03;;;7.48;100.00
18918;BME280;9591;52.742;13.650;2022-12-29T01:09:40;100130.91;;;7.47;100.00
18918;BME280;9591;52.742;13.650;2022-12-29T01:12:44;100134.38;;;7.49;100.00
18918;BME280;9591;52.742;13.650;2022-12-29T01:15:32;100136.19;;;7.47;100.00
18918;BME280;9591;52.742;13.650;2022-12-29T01:18:20;100129.03;;;7.51;100.00
18918;BME280;9591;52.742;13.650;2022-12-29T01:21:09;100135.97;;;7.55;100.00
18918;BME280;9591;52.742;13.650;2022-12-29T01:23:56;100134.31;;;7.51;100.00
18918;BME280;9591;52.742;13.650;2022-12-29T01:26:45;100134.38;;;7.49;100.00
18918;BME280;9591;52.742;13.650;2022-12-29T01:29:34;100129.88;;;7.53;100.00
18918;BME280;9591;52.742;13.650;2022-12-29T01:32:23;100127.16;;;7.56;100.00
18918;BME280;9591;52.742;13.650;2022-12-29T01:35:09;100129.03;;;7.51;100.00
18918;BME280;9591;52.742;13.650;2022-12-29T01:37:56;100116.75;;;7.51;100.00
18918;BME280;9591;52.742;13.650;2022-12-29T01:40:44;100106.47;;;7.42;100.00
18918;BME280;9591;52.742;13.650;2022-12-29T01:43:41;100098.97;;;7.29;100.00
18918;BME280;9591;52.742;13.650;2022-12-29T01:46:30;100117.13;;;7.38;100.00
18918;BME280;9591;52.742;13.650;2022-12-29T01:49:19;100106.47;;;7.42;100.00
18918;BME280;9591;52.742;13.650;2022-12-29T01:52:08;100114.97;;;7.52;100.00
18918;BME280;9591;52.742;13.650;2022-12-29T01:54:55;100114.16;;;7.50;100.00
18918;BME280;9591;52.742;13.650;2022-12-29T01:57:46;100108.78;;;7.53;100.00
18918;BME280;9591;52.742;13.650;2022-12-29T02:00:37;100107.25;;;7.46;100.00
18918;BME280;9591;52.742;13.650;2022-12-29T02:03:25;100107.84;;;7.55;100.00
18918;BME280;9591;52.742;13.650;2022-12-29T02:06:17;100108.00;;;7.49;100.00
18918;BME280;9591;52.742;13.650;2022-12-29T02:09:05;100104.50;;;7.49;100.00
18918;BME280;9591;52.742;13.650;2022-12-29T02:11:52;100097.38;;;7.52;100.00
18918;BME280;9591;52.742;13.650;2022-12-29T02:14:39;100097.47;;;7.49;100.00
18918;BME280;9591;52.742;13.650;2022-12-29T02:17:41;100095.75;;;7.48;100.00
18918;BME280;9591;52.742;13.650;2022-12-29T02:24:17;100084.38;;;7.46;100.00
18918;BME280;9591;52.742;13.650;2022-12-29T02:27:21;100083.56;;;7.44;100.00
18918;BME280;9591;52.742;13.650;2022-12-29T02:33:44;100074.84;;;7.42;100.00
18918;BME280;9591;52.742;13.650;2022-12-29T02:36:42;100072.03;;;7.48;100.00
18918;BME280;9591;52.742;13.650;2022-12-29T02:39:34;100064.31;;;7.42;100.00
18918;BME280;9591;52.742;13.650;2022-12-29T02:42:27;100066.81;;;7.47;100.00
18918;BME280;9591;52.742;13.650;2022-12-29T02:45:21;100058.19;;;7.42;100.00
18918;BME280;9591;52.742;13.650;2022-12-29T02:48:15;100059.53;;;7.55;100.00
18918;BME280;9591;52.742;13.650;2022-12-29T02:51:10;100050.22;;;7.43;100.00
18918;BME280;9591;52.742;13.650;2022-12-29T02:54:01;100066.75;;;7.48;100.00
18918;BME280;9591;52.742;13.650;2022-12-29T02:57:10;100058.81;;;7.50;100.00
18918;BME280;9591;52.742;13.650;2022-12-29T03:00:01;100052.72;;;7.48;100.00
18918;BME280;9591;52.742;13.650;2022-12-29T03:03:05;100053.50;;;7.51;100.00
18918;BME280;9591;52.742;13.650;2022-12-29T03:06:11;100047.28;;;7.54;100.00
18918;BME280;9591;52.742;13.650;2022-12-29T03:09:04;100045.13;;;7.67;100.00
18918;BME280;9591;52.742;13.650;2022-12-29T03:12:14;100049.75;;;7.59;100.00
18918;BME280;9591;52.742;13.650;2022-12-29T03:15:10;100055.63;;;7.68;100.00
18918;BME280;9591;52.742;13.650;2022-12-29T03:18:21;100040.22;;;7.54;100.00
18918;BME280;9591;52.742;13.650;2022-12-29T03:21:12;100043.34;;;7.67;100.00
18918;BME280;9591;52.742;13.650;2022-12-29T03:24:03;100038.66;;;7.77;100.00
18918;BME280;9591;52.742;13.650;2022-12-29T03:26:51;100028.16;;;7.75;100.00
18918;BME280;9591;52.742;13.650;2022-12-29T03:29:44;100034.19;;;7.79;100.00
18918;BME280;9591;52.742;13.650;2022-12-29T03:32:40;100030.47;;;7.84;100.00
18918;BME280;9591;52.742;13.650;2022-12-29T03:35:33;100030.78;;;7.75;100.00
18918;BME280;9591;52.742;13.650;2022-12-29T03:38:34;100025.09;;;7.87;100.00
18918;BME280;9591;52.742;13.650;2022-12-29T03:41:25;100019.97;;;7.83;100.00
18918;BME280;9591;52.742;13.650;2022-12-29T03:44:14;100014.59;;;7.86;100.00
18918;BME280;9591;52.742;13.650;2022-12-29T03:47:02;100011.22;;;7.82;100.00
18918;BME280;9591;52.742;13.650;2022-12-29T03:49:49;100009.47;;;7.81;100.00
18918;BME280;9591;52.742;13.650;2022-12-29T03:52:37;100012.81;;;7.86;100.00
18918;BME280;9591;52.742;13.650;2022-12-29T03:55:26;100013.16;;;8.04;100.00
18918;BME280;9591;52.742;13.650;2022-12-29T03:58:14;100014.16;;;8.00;100.00
18918;BME280;9591;52.742;13.650;2022-12-29T04:01:16;100022.63;;;8.09;100.00
18918;BME280;9591;52.742;13.650;2022-12-29T04:04:05;100031.50;;;8.07;100.00
18918;BME280;9591;52.742;13.650;2022-12-29T04:06:52;100013.69;;;8.13;100.00
18918;BME280;9591;52.742;13.650;2022-12-29T04:09:39;100022.97;;;8.25;100.00
18918;BME280;9591;52.742;13.650;2022-12-29T04:12:30;100021.31;;;8.22;100.00
18918;BME280;9591;52.742;13.650;2022-12-29T04:15:17;100017.44;;;8.34;100.00
18918;BME280;9591;52.742;13.650;2022-12-29T04:18:04;100025.50;;;8.28;100.00
18918;BME280;9591;52.742;13.650;2022-12-29T04:20:52;100020.06;;;8.34;100.00
18918;BME280;9591;52.742;13.650;2022-12-29T04:23:50;100004.06;;;8.39;100.00
18918;BME280;9591;52.742;13.650;2022-12-29T04:26:37;100005.53;;;8.47;100.00
18918;BME280;9591;52.742;13.650;2022-12-29T04:29:44;100008.13;;;8.49;100.00
18918;BME280;9591;52.742;13.650;2022-12-29T04:32:49;100011.34;;;8.57;100.00
18918;BME280;9591;52.742;13.650;2022-12-29T04:35:35;100008.56;;;8.62;100.00
18918;BME280;9591;52.742;13.650;2022-12-29T04:38:23;100012.91;;;8.63;100.00
18918;BME280;9591;52.742;13.650;2022-12-29T04:41:10;100006.66;;;8.65;100.00
18918;BME280;9591;52.742;13.650;2022-12-29T04:43:57;99993.31;;;8.68;100.00
18918;BME280;9591;52.742;13.650;2022-12-29T04:46:55;100010.03;;;8.69;100.00
18918;BME280;9591;52.742;13.650;2022-12-29T04:50:07;99992.59;;;8.65;100.00
18918;BME280;9591;52.742;13.650;2022-12-29T04:53:06;100000.09;;;8.75;100.00
18918;BME280;9591;52.742;13.650;2022-12-29T04:55:53;99996.56;;;8.76;100.00
18918;BME280;9591;52.742;13.650;2022-12-29T04:58:40;99987.94;;;8.71;100.00
18918;BME280;9591;52.742;13.650;2022-12-29T05:01:27;99985.13;;;8.76;100.00
18918;BME280;9591;52.742;13.650;2022-12-29T05:04:17;99983.47;;;8.73;100.00
18918;BME280;9591;52.742;13.650;2022-12-29T05:07:04;99980.38;;;8.62;100.00
18918;BME280;9591;52.742;13.650;2022-12-29T05:09:51;99973.53;;;8.57;100.00
18918;BME280;9591;52.742;13.650;2022-12-29T05:12:38;99985.81;;;8.58;100.00
18918;BME280;9591;52.742;13.650;2022-12-29T05:15:25;99970.78;;;8.60;100.00
18918;BME280;9591;52.742;13.650;2022-12-29T05:18:12;99981.00;;;8.69;100.00
18918;BME280;9591;52.742;13.650;2022-12-29T05:21:00;99976.94;;;8.60;100.00
18918;BME280;9591;52.742;13.650;2022-12-29T05:23:47;99982.22;;;8.60;100.00
18918;BME280;9591;52.742;13.650;2022-12-29T05:26:34;99966.59;;;8.54;100.00
18918;BME280;9591;52.742;13.650;2022-12-29T05:29:53;99983.06;;;8.61;100.00
18918;BME280;9591;52.742;13.650;2022-12-29T05:32:40;99976.63;;;8.68;100.00
18918;BME280;9591;52.742;13.650;2022-12-29T05:35:27;99964.97;;;8.73;100.00
18918;BME280;9591;52.742;13.650;2022-12-29T05:38:16;99959.53;;;8.78;100.00
18918;BME280;9591;52.742;13.650;2022-12-29T05:41:03;99954.13;;;8.81;100.00
18918;BME280;9591;52.742;13.650;2022-12-29T05:44:19;99950.41;;;8.86;100.00
18918;BME280;9591;52.742;13.650;2022-12-29T05:47:24;99941.63;;;8.86;100.00
18918;BME280;9591;52.742;13.650;2022-12-29T05:50:30;99940.03;;;8.82;100.00
18918;BME280;9591;52.742;13.650;2022-12-29T05:53:30;99939.09;;;8.83;100.00
18918;BME280;9591;52.742;13.650;2022-12-29T05:56:18;99944.22;;;8.87;100.00
18918;BME280;9591;52.742;13.650;2022-12-29T05:59:11;99944.09;;;8.91;100.00
18918;BME280;9591;52.742;13.650;2022-12-29T06:02:00;99940.47;;;8.93;100.00
18918;BME280;9591;52.742;13.650;2022-12-29T06:04:47;99935.44;;;8.87;100.00
18918;BME280;9591;52.742;13.650;2022-12-29T06:07:34;99933.00;;;9.04;100.00
18918;BME280;9591;52.742;13.650;2022-12-29T06:10:22;99939.22;;;9.03;100.00
18918;BME280;9591;52.742;13.650;2022-12-29T06:13:17;99912.00;;;9.01;100.00
18918;BME280;9591;52.742;13.650;2022-12-29T06:16:06;99932.41;;;9.19;100.00
18918;BME280;9591;52.742;13.650;2022-12-29T06:18:55;99923.50;;;9.22;100.00
18918;BME280;9591;52.742;13.650;2022-12-29T06:21:42;99942.38;;;9.35;100.00
18918;BME280;9591;52.742;13.650;2022-12-29T06:24:28;99940.72;;;9.32;100.00
18918;BME280;9591;52.742;13.650;2022-12-29T06:27:17;99941.28;;;9.40;100.00
18918;BME280;9591;52.742;13.650;2022-12-29T06:30:06;99934.28;;;9.39;100.00
18918;BME280;9591;52.742;13.650;2022-12-29T06:32:56;99939.38;;;9.44;100.00
18918;BME280;9591;52.742;13.650;2022-12-29T06:35:43;99943.34;;;9.54;100.00
18918;BME280;9591;52.742;13.650;2022-12-29T06:38:32;99950.34;;;9.55;100.00
18918;BME280;9591;52.742;13.650;2022-12-29T06:41:20;99949.50;;;9.54;100.00
18918;BME280;9591;52.742;13.650;2022-12-29T06:44:41;99951.03;;;9.60;100.00
18918;BME280;9591;52.742;13.650;2022-12-29T06:47:28;99951.03;;;9.60;100.00
18918;BME280;9591;52.742;13.650;2022-12-29T06:50:14;99952.69;;;9.63;100.00
18918;BME280;9591;52.742;13.650;2022-12-29T06:53:01;99949.25;;;9.61;100.00
18918;BME280;9591;52.742;13.650;2022-12-29T06:55:48;99939.09;;;9.72;100.00
18918;BME280;9591;52.742;13.650;2022-12-29T06:58:35;99930.25;;;9.73;100.00
18918;BME280;9591;52.742;13.650;2022-12-29T07:01:23;99933.56;;;9.78;100.00
18918;BME280;9591;52.742;13.650;2022-12-29T07:04:10;99936.25;;;9.76;100.00
18918;BME280;9591;52.742;13.650;2022-12-29T07:06:57;99939.56;;;9.81;100.00
18918;BME280;9591;52.742;13.650;2022-12-29T07:09:44;99945.78;;;9.80;100.00
18918;BME280;9591;52.742;13.650;2022-12-29T07:12:31;99948.44;;;9.80;100.00
18918;BME280;9591;52.742;13.650;2022-12-29T07:15:18;99934.34;;;9.80;100.00
18918;BME280;9591;52.742;13.650;2022-12-29T07:18:06;99940.94;;;9.70;100.00
18918;BME280;9591;52.742;13.650;2022-12-29T07:20:52;99943.72;;;9.67;100.00
18918;BME280;9591;52.742;13.650;2022-12-29T07:23:39;99927.47;;;9.76;100.00
18918;BME280;9591;52.742;13.650;2022-12-29T07:26:27;99941.00;;;9.68;100.00
18918;BME280;9591;52.742;13.650;2022-12-29T07:29:20;99946.22;;;9.70;100.00
18918;BME280;9591;52.742;13.650;2022-12-29T07:32:07;99961.22;;;9.69;100.00
18918;BME280;9591;52.742;13.650;2022-12-29T07:34:56;99943.78;;;9.65;100.00
18918;BME280;9591;52.742;13.650;2022-12-29T07:37:42;99944.31;;;9.73;100.00
18918;BME280;9591;52.742;13.650;2022-12-29T07:40:29;99942.97;;;9.85;100.00
18918;BME280;9591;52.742;13.650;2022-12-29T07:43:16;99929.94;;;9.80;100.00
18918;BME280;9591;52.742;13.650;2022-12-29T07:46:23;99941.09;;;9.87;100.00
18918;BME280;9591;52.742;13.650;2022-12-29T07:49:30;99953.00;;;9.77;100.00
18918;BME280;9591;52.742;13.650;2022-12-29T07:52:18;99939.91;;;9.74;100.00
18918;BME280;9591;52.742;13.650;2022-12-29T07:55:06;99944.56;;;9.89;100.00
18918;BME280;9591;52.742;13.650;2022-12-29T07:57:53;99931.25;;;9.91;100.00
18918;BME280;9591;52.742;13.650;2022-12-29T08:00:40;99932.97;;;9.92;100.00
18918;BME280;9591;52.742;13.650;2022-12-29T08:03:26;99947.53;;;10.02;100.00
18918;BME280;9591;52.742;13.650;2022-12-29T08:06:13;99946.69;;;10.01;100.00
18918;BME280;9591;52.742;13.650;2022-12-29T08:09:02;99959.47;;;10.12;100.00
18918;BME280;9591;52.742;13.650;2022-12-29T08:11:58;99947.03;;;10.14;100.00
18918;BME280;9591;52.742;13.650;2022-12-29T08:14:45;99954.84;;;10.17;100.00
18918;BME280;9591;52.742;13.650;2022-12-29T08:17:32;99953.75;;;10.23;100.00
18918;BME280;9591;52.742;13.650;2022-12-29T08:20:19;99949.31;;;10.23;100.00
18918;BME280;9591;52.742;13.650;2022-12-29T08:23:06;99941.09;;;10.29;100.00
18918;BME280;9591;52.742;13.650;2022-12-29T08:25:58;99944.56;;;10.31;100.00
18918;BME280;9591;52.742;13.650;2022-12-29T08:28:44;99943.19;;;10.41;100.00
18918;BME280;9591;52.742;13.650;2022-12-29T08:31:31;99932.59;;;10.41;100.00
18918;BME280;9591;52.742;13.650;2022-12-29T08:34:18;99937.19;;;10.38;100.00
18918;BME280;9591;52.742;13.650;2022-12-29T08:37:05;99924.84;;;10.38;100.00
18918;BME280;9591;52.742;13.650;2022-12-29T08:39:52;99945.22;;;10.36;100.00
18918;BME280;9591;52.742;13.650;2022-12-29T08:42:40;99944.34;;;10.36;100.00
18918;BME280;9591;52.742;13.650;2022-12-29T08:45:27;99943.34;;;10.38;100.00
18918;BME280;9591;52.742;13.650;2022-12-29T08:48:14;99932.69;;;10.40;100.00
18918;BME280;9591;52.742;13.650;2022-12-29T08:51:03;99930.75;;;10.43;100.00
18918;BME280;9591;52.742;13.650;2022-12-29T08:53:51;99936.34;;;10.37;100.00
18918;BME280;9591;52.742;13.650;2022-12-29T08:56:38;99936.34;;;10.37;100.00
18918;BME280;9591;52.742;13.650;2022-12-29T08:59:27;99932.78;;;10.38;100.00
18918;BME280;9591;52.742;13.650;2022-12-29T09:02:14;99935.78;;;10.49;100.00
18918;BME280;9591;52.742;13.650;2022-12-29T09:05:09;99930.13;;;10.57;100.00
18918;BME280;9591;52.742;13.650;2022-12-29T09:07:56;99932.69;;;10.79;100.00
18918;BME280;9591;52.742;13.650;2022-12-29T09:10:43;99888.72;;;10.75;100.00
18918;BME280;9591;52.742;13.650;2022-12-29T09:13:30;99908.63;;;11.02;100.00
18918;BME280;9591;52.742;13.650;2022-12-29T09:16:21;99905.78;;;11.07;100.00
18918;BME280;9591;52.742;13.650;2022-12-29T09:19:08;99926.13;;;11.06;100.00
18918;BME280;9591;52.742;13.650;2022-12-29T09:21:55;99922.38;;;11.10;100.00
18918;BME280;9591;52.742;13.650;2022-12-29T09:24:42;99920.03;;;11.04;100.00
18918;BME280;9591;52.742;13.650;2022-12-29T09:27:29;99921.59;;;11.08;100.00
18918;BME280;9591;52.742;13.650;2022-12-29T09:30:16;99925.31;;;11.04;100.00
18918;BME280;9591;52.742;13.650;2022-12-29T09:33:04;99921.16;;;11.18;100.00
18918;BME280;9591;52.742;13.650;2022-12-29T09:35:52;99927.47;;;11.15;100.00
18918;BME280;9591;52.742;13.650;2022-12-29T09:38:39;99926.25;;;11.22;100.00
18918;BME280;9591;52.742;13.650;2022-12-29T09:41:29;99911.13;;;11.24;100.00
18918;BME280;9591;52.742;13.650;2022-12-29T09:44:24;99912.47;;;11.33;100.00
18918;BME280;9591;52.742;13.650;2022-12-29T09:47:14;99903.78;;;11.29;100.00
18918;BME280;9591;52.742;13.650;2022-12-29T09:50:18;99904.50;;;11.33;100.00
18918;BME280;9591;52.742;13.650;2022-12-29T09:53:11;99900.22;;;11.30;100.00
18918;BME280;9591;52.742;13.650;2022-12-29T09:56:01;99902.56;;;11.36;100.00
18918;BME280;9591;52.742;13.650;2022-12-29T09:58:52;99910.28;;;11.41;100.00
18918;BME280;9591;52.742;13.650;2022-12-29T10:01:44;99896.09;;;11.42;100.00
18918;BME280;9591;52.742;13.650;2022-12-29T10:04:33;99908.28;;;11.46;100.00
18918;BME280;9591;52.742;13.650;2022-12-29T10:07:29;99904.84;;;11.44;100.00
18918;BME280;9591;52.742;13.650;2022-12-29T10:10:27;99910.56;;;11.54;100.00
18918;BME280;9591;52.742;13.650;2022-12-29T10:13:26;99895.50;;;11.54;100.00
18918;BME280;9591;52.742;13.650;2022-12-29T10:16:20;99891.84;;;11.57;100.00
18918;BME280;9591;52.742;13.650;2022-12-29T10:19:38;99906.91;;;11.56;100.00
18918;BME280;9591;52.742;13.650;2022-12-29T10:22:48;99900.38;;;11.63;100.00
18918;BME280;9591;52.742;13.650;2022-12-29T10:25:41;99860.56;;;11.46;100.00
18918;BME280;9591;52.742;13.650;2022-12-29T10:28:35;99903.22;;;11.77;100.00
18918;BME280;9591;52.742;13.650;2022-12-29T10:31:32;99894.19;;;11.81;100.00
18918;BME280;9591;52.742;13.650;2022-12-29T10:34:23;99894.50;;;11.93;100.00
18918;BME280;9591;52.742;13.650;2022-12-29T10:37:18;99894.41;;;11.94;100.00
18918;BME280;9591;52.742;13.650;2022-12-29T10:40:25;99906.81;;;11.94;100.00
18918;BME280;9591;52.742;13.650;2022-12-29T10:43:25;99909.09;;;12.01;100.00
18918;BME280;9591;52.742;13.650;2022-12-29T10:46:14;99891.22;;;12.05;100.00
18918;BME280;9591;52.742;13.650;2022-12-29T10:49:03;99885.91;;;12.05;100.00
18918;BME280;9591;52.742;13.650;2022-12-29T10:51:50;99893.25;;;12.00;100.00
18918;BME280;9591;52.742;13.650;2022-12-29T10:54:45;99891.75;;;12.11;100.00
18918;BME280;9591;52.742;13.650;2022-12-29T10:57:38;99885.84;;;12.06;100.00
18918;BME280;9591;52.742;13.650;2022-12-29T11:00:26;99891.44;;;12.00;100.00
18918;BME280;9591;52.742;13.650;2022-12-29T11:03:40;99899.03;;;11.91;100.00
18918;BME280;9591;52.742;13.650;2022-12-29T11:06:28;99887.06;;;11.82;100.00
18918;BME280;9591;52.742;13.650;2022-12-29T11:09:20;99887.84;;;11.84;100.00
18918;BME280;9591;52.742;13.650;2022-12-29T11:12:28;99877.94;;;11.88;100.00
18918;BME280;9591;52.742;13.650;2022-12-29T11:15:17;99881.78;;;11.99;100.00
18918;BME280;9591;52.742;13.650;2022-12-29T11:18:04;99880.28;;;12.11;100.00
18918;BME280;9591;52.742;13.650;2022-12-29T11:20:52;99880.59;;;12.05;100.00
18918;BME280;9591;52.742;13.650;2022-12-29T11:23:41;99882.50;;;12.19;100.00
18918;BME280;9591;52.742;13.650;2022-12-29T11:26:29;99889.47;;;12.21;100.00
18918;BME280;9591;52.742;13.650;2022-12-29T11:29:27;99818.97;;;11.82;100.00
18918;BME280;9591;52.742;13.650;2022-12-29T11:32:20;99870.88;;;12.21;100.00
18918;BME280;9591;52.742;13.650;2022-12-29T11:35:30;99878.34;;;12.30;100.00
18918;BME280;9591;52.742;13.650;2022-12-29T11:38:20;99872.28;;;12.28;100.00
18918;BME280;9591;52.742;13.650;2022-12-29T11:41:12;99864.91;;;12.33;100.00
18918;BME280;9591;52.742;13.650;2022-12-29T11:44:02;99866.09;;;12.28;100.00
18918;BME280;9591;52.742;13.650;2022-12-29T11:46:51;99869.16;;;12.20;100.00
18918;BME280;9591;52.742;13.650;2022-12-29T11:49:39;99869.84;;;12.24;100.00
18918;BME280;9591;52.742;13.650;2022-12-29T11:52:28;99887.31;;;12.12;100.00
18918;BME280;9591;52.742;13.650;2022-12-29T11:55:18;99888.50;;;12.22;100.00
18918;BME280;9591;52.742;13.650;2022-12-29T11:58:14;99883.38;;;12.19;100.00
18918;BME280;9591;52.742;13.650;2022-12-29T12:01:04;99867.81;;;11.96;100.00
18918;BME280;9591;52.742;13.650;2022-12-29T12:03:59;99868.19;;;11.88;100.00
18918;BME280;9591;52.742;13.650;2022-12-29T12:06:55;99850.22;;;11.76;100.00
18918;BME280;9591;52.742;13.650;2022-12-29T12:09:48;99860.03;;;11.57;100.00
18918;BME280;9591;52.742;13.650;2022-12-29T12:12:46;99866.81;;;11.62;100.00
18918;BME280;9591;52.742;13.650;2022-12-29T12:15:36;99882.59;;;11.65;100.00
18918;BME280;9591;52.742;13.650;2022-12-29T12:18:38;99886.88;;;11.68;100.00
18918;BME280;9591;52.742;13.650;2022-12-29T12:21:31;99867.28;;;11.53;100.00
18918;BME280;9591;52.742;13.650;2022-12-29T12:24:38;99892.31;;;11.65;100.00
18918;BME280;9591;52.742;13.650;2022-12-29T12:27:31;99894.03;;;11.66;100.00
18918;BME280;9591;52.742;13.650;2022-12-29T12:30:23;99890.47;;;11.67;100.00
18918;BME280;9591;52.742;13.650;2022-12-29T12:33:16;99899.50;;;11.63;100.00
18918;BME280;9591;52.742;13.650;2022-12-29T12:36:18;99876.91;;;11.37;100.00
18918;BME280;9591;52.742;13.650;2022-12-29T12:39:12;99893.59;;;11.39;100.00
18918;BME280;9591;52.742;13.650;2022-12-29T12:42:22;99891.81;;;11.22;100.00
18918;BME280;9591;52.742;13.650;2022-12-29T12:45:33;99879.63;;;11.18;100.00
18918;BME280;9591;52.742;13.650;2022-12-29T12:51:46;99884.06;;;11.18;100.00
18918;BME280;9591;52.742;13.650;2022-12-29T12:54:44;99877.97;;;11.15;100.00
18918;BME280;9591;52.742;13.650;2022-12-29T12:57:45;99887.66;;;11.16;100.00
18918;BME280;9591;52.742;13.650;2022-12-29T13:00:41;99889.59;;;11.13;100.00
18918;BME280;9591;52.742;13.650;2022-12-29T13:03:44;99894.09;;;11.11;100.00
18918;BME280;9591;52.742;13.650;2022-12-29T13:06:39;99909.00;;;11.13;100.00
18918;BME280;9591;52.742;13.650;2022-12-29T13:09:48;99910.06;;;11.09;100.00
18918;BME280;9591;52.742;13.650;2022-12-29T13:12:47;99915.00;;;10.98;100.00
18918;BME280;9591;52.742;13.650;2022-12-29T13:15:41;99912.38;;;10.98;100.00
18918;BME280;9591;52.742;13.650;2022-12-29T13:18:36;99915.31;;;10.92;100.00
18918;BME280;9591;52.742;13.650;2022-12-29T13:21:42;99909.72;;;10.79;100.00
18918;BME280;9591;52.742;13.650;2022-12-29T13:24:50;99921.22;;;10.78;100.00
18918;BME280;9591;52.742;13.650;2022-12-29T13:27:48;99926.22;;;10.66;100.00
18918;BME280;9591;52.742;13.650;2022-12-29T13:30:41;99926.34;;;10.63;100.00
18918;BME280;9591;52.742;13.650;2022-12-29T13:33:38;99922.19;;;10.57;100.00
18918;BME280;9591;52.742;13.650;2022-12-29T13:36:34;99919.41;;;10.60;100.00
18918;BME280;9591;52.742;13.650;2022-12-29T13:39:27;99888.84;;;10.34;100.00
18918;BME280;9591;52.742;13.650;2022-12-29T13:42:19;99927.63;;;10.54;100.00
18918;BME280;9591;52.742;13.650;2022-12-29T13:45:12;99924.84;;;10.57;100.00
18918;BME280;9591;52.742;13.650;2022-12-29T13:48:03;99928.91;;;10.45;100.00
18918;BME280;9591;52.742;13.650;2022-12-29T13:50:54;99932.41;;;10.46;100.00
18918;BME280;9591;52.742;13.650;2022-12-29T13:53:55;99939.00;;;10.37;100.00
18918;BME280;9591;52.742;13.650;2022-12-29T13:56:49;99943.97;;;10.43;100.00
18918;BME280;9591;52.742;13.650;2022-12-29T13:59:44;99908.13;;;10.16;100.00
18918;BME280;9591;52.742;13.650;2022-12-29T14:02:46;99943.19;;;10.41;100.00
18918;BME280;9591;52.742;13.650;2022-12-29T14:05:37;99946.94;;;10.37;100.00
18918;BME280;9591;52.742;13.650;2022-12-29T14:08:24;99957.22;;;10.43;100.00
18918;BME280;9591;52.742;13.650;2022-12-29T14:11:12;99959.94;;;10.42;100.00
18918;BME280;9591;52.742;13.650;2022-12-29T14:14:11;99958.16;;;10.42;100.00
18918;BME280;9591;52.742;13.650;2022-12-29T14:17:09;99967.69;;;10.46;100.00
18918;BME280;9591;52.742;13.650;2022-12-29T14:20:03;99979.31;;;10.42;100.00
18918;BME280;9591;52.742;13.650;2022-12-29T14:22:58;99984.38;;;10.28;100.00
18918;BME280;9591;52.742;13.650;2022-12-29T14:25:58;99974.97;;;10.41;100.00
18918;BME280;9591;52.742;13.650;2022-12-29T14:28:46;99983.81;;;10.40;100.00
18918;BME280;9591;52.742;13.650;2022-12-29T14:31:33;99989.28;;;10.37;100.00
18918;BME280;9591;52.742;13.650;2022-12-29T14:34:30;100000.31;;;10.27;100.00
18918;BME280;9591;52.742;13.650;2022-12-29T14:37:27;99993.19;;;10.29;100.00
18918;BME280;9591;52.742;13.650;2022-12-29T14:40:17;100006.66;;;10.23;100.00
18918;BME280;9591;52.742;13.650;2022-12-29T14:43:12;100009.72;;;10.12;100.00
18918;BME280;9591;52.742;13.650;2022-12-29T14:46:01;99996.22;;;10.20;100.00
18918;BME280;9591;52.742;13.650;2022-12-29T14:48:55;100003.50;;;10.13;100.00
18918;BME280;9591;52.742;13.650;2022-12-29T14:51:42;99993.72;;;10.15;100.00
18918;BME280;9591;52.742;13.650;2022-12-29T14:54:52;100003.09;;;10.02;100.00
18918;BME280;9591;52.742;13.650;2022-12-29T14:57:40;100006.00;;;9.96;100.00
18918;BME280;9591;52.742;13.650;2022-12-29T15:00:32;100000.84;;;9.93;100.00
18918;BME280;9591;52.742;13.650;2022-12-29T15:03:22;100011.56;;;10.10;100.00
18918;BME280;9591;52.742;13.650;2022-12-29T15:06:11;100013.31;;;10.11;100.00
18918;BME280;9591;52.742;13.650;2022-12-29T15:09:06;100013.25;;;10.12;100.00
18918;BME280;9591;52.742;13.650;2022-12-29T15:12:01;100013.13;;;10.15;100.00
18918;BME280;9591;52.742;13.650;2022-12-29T15:14:59;100031.41;;;10.22;100.00